Time;durP1;ratioP1;P1;durP2;ratioP2;P2;SDS_P1;SDS_P2;PMS_P1;PMS_P2;Temp;Humidity;BMP_temperature;BMP_pressure;BME280_temperature;BME280_humidity;BME280_pressure;Samples;Min_cycle;Max_cycle;Signal;HPM_P1;HPM_P2
2023/03/10 00:02:06;;;;;;;44.73;23.62;;;;;;;0.21;100.00;98924.19;5105481;56;1139050;-82
2023/03/10 00:07:11;;;;;;;50.77;25.47;;;;;;;0.22;100.00;98918.90;4950843;57;1139018;-77
2023/03/10 00:12:17;;;;;;;45.80;26.03;;;;;;;0.26;100.00;98911.75;5034447;56;1138912;-78
2023/03/10 00:17:23;;;;;;;47.53;25.13;;;;;;;0.27;100.00;98914.73;5053622;56;1138916;-76
2023/03/10 00:22:29;;;;;;;43.13;24.73;;;;;;;0.31;100.00;98913.13;5097503;56;1139424;-78
2023/03/10 00:27:35;;;;;;;57.95;27.77;;;;;;;0.37;100.00;98909.32;5116963;56;1138963;-81
2023/03/10 00:32:41;;;;;;;47.27;25.33;;;;;;;0.36;100.00;98899.84;5090210;56;1139098;-80
2023/03/10 00:37:46;;;;;;;58.03;27.97;;;;;;;0.36;100.00;98871.24;5032307;57;1138949;-78
2023/03/10 00:42:53;;;;;;;48.63;25.80;;;;;;;0.33;100.00;98870.12;5032279;56;1138987;-82
2023/03/10 00:47:59;;;;;;;49.80;27.00;;;;;;;0.31;100.00;98844.22;5035082;56;1138971;-80
2023/03/10 00:53:05;;;;;;;51.00;27.50;;;;;;;0.30;100.00;98837.84;5060344;57;1138817;-81
2023/03/10 00:58:11;;;;;;;50.20;26.80;;;;;;;0.29;100.00;98832.27;5045972;57;1138873;-77
2023/03/10 01:03:18;;;;;;;53.92;28.98;;;;;;;0.28;100.00;98825.41;5059114;57;1138837;-76
2023/03/10 01:08:24;;;;;;;57.58;28.25;;;;;;;0.32;100.00;98806.05;5080752;56;1139189;-76
2023/03/10 01:13:30;;;;;;;50.37;27.90;;;;;;;0.33;100.00;98790.83;5020175;57;1138835;-79
2023/03/10 01:18:36;;;;;;;52.17;27.53;;;;;;;0.34;100.00;98780.80;5000344;57;1139050;-80
2023/03/10 01:23:42;;;;;;;53.80;29.90;;;;;;;0.41;100.00;98783.85;4981179;58;1138900;-75
2023/03/10 01:28:49;;;;;;;56.33;30.93;;;;;;;0.41;100.00;98770.39;4961813;57;1138737;-77
2023/03/10 01:33:55;;;;;;;53.43;29.23;;;;;;;0.42;100.00;98781.63;4961900;57;1138994;-82
2023/03/10 01:39:01;;;;;;;58.63;29.00;;;;;;;0.47;100.00;98778.23;4981410;57;1139021;-78
2023/03/10 01:44:18;;;;;;;54.90;29.63;;;;;;;0.48;100.00;98779.91;4961884;57;1138975;-75
2023/03/10 01:49:37;;;;;;;55.83;30.23;;;;;;;0.50;100.00;98767.64;5010878;56;1138902;-77
2023/03/10 01:54:56;;;;;;;57.73;31.00;;;;;;;0.50;100.00;98748.14;5065602;57;1138814;-79
2023/03/10 02:00:08;;;;;;;57.63;29.90;;;;;;;0.47;100.00;98727.53;5045765;57;1139007;-77
2023/03/10 02:05:14;;;;;;;61.77;30.37;;;;;;;0.50;100.00;98720.83;5040645;57;1138963;-77
2023/03/10 02:10:21;;;;;;;61.77;32.40;;;;;;;0.48;100.00;98710.99;5065850;56;1138987;-76
2023/03/10 02:15:29;;;;;;;62.00;32.90;;;;;;;0.50;100.00;98698.26;5103688;56;1139123;-78
2023/03/10 02:20:52;;;;;;;56.60;31.02;;;;;;;0.49;100.00;98682.75;4991409;57;1139129;-78
2023/03/10 02:26:02;;;;;;;60.40;32.40;;;;;;;0.50;100.00;98665.75;5047044;55;1138808;-75
2023/03/10 02:31:09;;;;;;;65.20;33.10;;;;;;;0.45;100.00;98650.94;5064617;56;1138850;-77
2023/03/10 02:36:22;;;;;;;64.80;34.30;;;;;;;0.46;100.00;98635.67;5044984;56;1138978;-78
2023/03/10 02:41:35;;;;;;;56.77;31.50;;;;;;;0.49;100.00;98628.14;5045380;56;1138971;-78
2023/03/10 02:46:43;;;;;;;65.20;33.73;;;;;;;0.45;100.00;98618.43;5064692;56;1138839;-79
2023/03/10 02:51:49;;;;;;;60.85;33.05;;;;;;;0.42;100.00;98617.80;5029426;56;1139018;-80
2023/03/10 02:56:56;;;;;;;58.50;30.50;;;;;;;0.44;100.00;98604.23;5022198;56;1138886;-77
2023/03/10 03:02:02;;;;;;;62.10;33.20;;;;;;;0.47;100.00;98605.30;5042612;56;1138838;-79
2023/03/10 03:07:08;;;;;;;62.33;33.70;;;;;;;0.47;100.00;98593.59;5022699;56;1138817;-80
2023/03/10 03:12:15;;;;;;;62.00;33.83;;;;;;;0.45;100.00;98581.19;5100611;56;1138952;-77
2023/03/10 03:17:21;;;;;;;63.50;31.83;;;;;;;0.51;100.00;98583.36;5041705;55;1139069;-78
2023/03/10 03:22:28;;;;;;;60.93;33.17;;;;;;;0.58;100.00;98564.65;5076163;55;1139435;-84
2023/03/10 03:27:34;;;;;;;59.95;33.33;;;;;;;0.62;100.00;98540.53;5068458;55;1139161;-82
2023/03/10 03:32:40;;;;;;;68.13;35.90;;;;;;;0.59;100.00;98535.57;5116911;56;1138965;-80
2023/03/10 03:37:46;;;;;;;65.23;33.93;;;;;;;0.59;100.00;98536.88;5087314;56;1138977;-83
2023/03/10 03:42:54;;;;;;;54.27;30.50;;;;;;;0.61;100.00;98526.70;5087465;56;1138963;-80
2023/03/10 03:48:00;;;;;;;59.08;32.83;;;;;;;0.64;100.00;98508.75;5078394;56;1139070;-82
2023/03/10 03:53:07;;;;;;;53.77;28.93;;;;;;;0.60;100.00;98496.45;5081251;56;1139193;-81
2023/03/10 03:58:14;;;;;;;55.55;29.07;;;;;;;0.60;100.00;98479.55;4995532;56;1138902;-76
2023/03/10 04:03:21;;;;;;;54.93;28.67;;;;;;;0.60;100.00;98464.41;5037559;56;1139171;-79
2023/03/10 04:08:27;;;;;;;53.93;27.77;;;;;;;0.61;100.00;98464.27;5166021;54;1138735;-80
2023/03/10 04:13:33;;;;;;;47.03;26.12;;;;;;;0.66;100.00;98458.29;5092566;56;1138778;-80
2023/03/10 04:18:39;;;;;;;60.50;28.73;;;;;;;0.65;100.00;98429.78;5074275;56;1138907;-77
2023/03/10 04:23:47;;;;;;;55.57;27.57;;;;;;;0.66;100.00;98434.05;5052868;57;1139354;-78
2023/03/10 04:28:54;;;;;;;52.57;28.37;;;;;;;0.66;100.00;98414.53;5033053;57;1138709;-78
2023/03/10 04:34:00;;;;;;;103.70;50.73;;;;;;;0.68;100.00;98403.09;5033546;57;1139462;-79
2023/03/10 04:39:08;;;;;;;86.87;42.90;;;;;;;0.71;100.00;98386.44;5052722;57;1140869;-81
2023/03/10 04:44:15;;;;;;;62.70;32.00;;;;;;;0.73;100.00;98382.42;5033251;57;1138811;-78
2023/03/10 04:49:22;;;;;;;53.03;28.53;;;;;;;0.69;100.00;98371.40;5022306;57;1138890;-78
2023/03/10 04:54:30;;;;;;;77.08;36.70;;;;;;;0.69;100.00;98353.19;5068690;56;1139278;-76
2023/03/10 04:59:36;;;;;;;56.13;27.93;;;;;;;0.69;100.00;98353.19;5111437;56;1139075;-78
2023/03/10 05:04:44;;;;;;;60.93;32.03;;;;;;;0.71;100.00;98343.51;5111473;56;1139060;-77
2023/03/10 05:09:50;;;;;;;56.23;29.93;;;;;;;0.73;100.00;98333.00;5153282;55;1139046;-79
2023/03/10 05:14:57;;;;;;;60.10;30.50;;;;;;;0.67;100.00;98323.38;5142579;55;1138925;-81
2023/03/10 05:20:05;;;;;;;67.73;32.77;;;;;;;0.68;100.00;98317.71;5095394;55;1138932;-83
2023/03/10 05:25:13;;;;;;;63.53;31.53;;;;;;;0.72;100.00;98302.72;5120536;56;1138765;-81
2023/03/10 05:30:19;;;;;;;58.07;29.07;;;;;;;0.72;100.00;98305.32;5140336;56;1139176;-78
2023/03/10 05:35:27;;;;;;;59.57;30.77;;;;;;;0.74;100.00;98307.34;5144927;55;1138928;-78
2023/03/10 05:40:33;;;;;;;60.58;31.20;;;;;;;0.74;100.00;98302.14;5170803;55;1139399;-80
2023/03/10 05:45:39;;;;;;;50.03;25.97;;;;;;;0.76;100.00;98278.15;5157609;55;1138896;-76
2023/03/10 05:50:45;;;;;;;90.70;49.57;;;;;;;0.80;100.00;98279.09;5152086;55;1138770;-76
2023/03/10 05:55:52;;;;;;;53.83;27.87;;;;;;;0.88;100.00;98277.23;5139129;55;1139035;-78
2023/03/10 06:00:58;;;;;;;70.25;38.55;;;;;;;0.91;100.00;98259.62;5072427;55;1139028;-81
2023/03/10 06:06:06;;;;;;;48.23;24.70;;;;;;;0.88;100.00;98258.55;5165481;56;1138850;-76
2023/03/10 06:11:12;;;;;;;48.67;25.23;;;;;;;0.90;100.00;98254.54;5091682;56;1138999;-78
2023/03/10 06:16:17;;;;;;;45.93;24.30;;;;;;;0.94;100.00;98257.25;5136012;56;1138874;-80
2023/03/10 06:21:27;;;;;;;45.67;24.00;;;;;;;0.97;100.00;98243.54;5114358;56;1138867;-79
2023/03/10 06:26:34;;;;;;;47.40;24.72;;;;;;;1.03;100.00;98228.78;5091894;56;1139087;-82
2023/03/10 06:31:40;;;;;;;50.03;26.50;;;;;;;1.12;100.00;98218.61;4986250;57;1138835;-78
2023/03/10 06:36:46;;;;;;;62.40;30.20;;;;;;;1.20;100.00;98209.75;5004362;57;1138903;-75
2023/03/10 06:41:52;;;;;;;53.20;27.50;;;;;;;1.16;100.00;98199.21;4927976;56;1138759;-78
2023/03/10 06:46:57;;;;;;;56.33;26.13;;;;;;;1.20;100.00;98198.04;4857440;58;1138867;-76
2023/03/10 06:52:04;;;;;;;48.10;25.43;;;;;;;1.24;100.00;98198.14;5027700;57;1138766;-79
2023/03/10 06:57:10;;;;;;;53.60;27.47;;;;;;;1.25;100.00;98188.91;5008350;56;1138961;-76
2023/03/10 07:02:18;;;;;;;62.57;29.60;;;;;;;1.32;100.00;98192.72;5007958;57;1138770;-72
2023/03/10 07:07:25;;;;;;;58.58;30.37;;;;;;;1.36;100.00;98188.94;5009694;57;1138971;-68
2023/03/10 07:12:31;;;;;;;57.58;29.90;;;;;;;1.41;100.00;98194.59;4928389;57;1139301;-70
2023/03/10 07:17:36;;;;;;;55.90;29.03;;;;;;;1.46;100.00;98180.40;4938516;57;1138873;-70
2023/03/10 07:22:42;;;;;;;52.43;28.13;;;;;;;1.50;100.00;98180.52;4885479;57;1139018;-71
2023/03/10 07:27:48;;;;;;;52.00;26.47;;;;;;;1.58;100.00;98176.83;5048345;57;1138779;-69
2023/03/10 07:32:55;;;;;;;52.53;26.83;;;;;;;1.64;100.00;98173.28;5028986;57;1139227;-67
2023/03/10 07:38:06;;;;;;;55.07;29.67;;;;;;;1.67;100.00;98169.14;5049180;57;1139041;-70
2023/03/10 07:43:10;;;;;;;75.23;37.40;;;;;;;1.64;100.00;98157.66;4991234;57;1139040;-70
2023/03/10 07:48:16;;;;;;;70.03;33.87;;;;;;;1.62;100.00;98160.02;4970399;57;1139033;-70
2023/03/10 07:53:22;;;;;;;58.38;29.60;;;;;;;1.66;100.00;98153.16;4964459;57;1138846;-71
2023/03/10 07:58:28;;;;;;;53.67;27.47;;;;;;;1.68;100.00;98140.80;4929311;57;1138961;-71
2023/03/10 08:03:34;;;;;;;52.63;27.00;;;;;;;1.80;100.00;98135.59;4936822;57;1138860;-69
2023/03/10 08:08:41;;;;;;;54.70;29.23;;;;;;;1.83;100.00;98129.67;4971942;57;1138935;-68
2023/03/10 08:13:47;;;;;;;61.30;29.35;;;;;;;1.85;100.00;98131.65;4917391;57;1139135;-68
2023/03/10 08:18:53;;;;;;;55.97;27.57;;;;;;;1.89;100.00;98133.55;4934924;57;1138926;-69
2023/03/10 08:23:59;;;;;;;61.63;31.85;;;;;;;1.92;100.00;98131.52;5037956;56;1138970;-66
2023/03/10 08:29:05;;;;;;;50.97;29.03;;;;;;;1.94;100.00;98132.70;5113026;56;1138874;-69
2023/03/10 08:34:12;;;;;;;73.13;35.10;;;;;;;1.99;100.00;98126.63;4897961;58;1138798;-67
2023/03/10 08:39:19;;;;;;;60.13;32.07;;;;;;;2.05;100.00;98130.05;4894472;57;1138948;-73
2023/03/10 08:44:24;;;;;;;63.13;32.77;;;;;;;2.10;100.00;98131.34;4974558;56;1138943;-68
2023/03/10 08:49:30;;;;;;;62.77;32.37;;;;;;;2.15;100.00;98123.61;5016303;56;1138839;-69
2023/03/10 08:54:36;;;;;;;81.13;43.73;;;;;;;2.19;100.00;98129.77;4946379;58;1138999;-67
2023/03/10 08:59:43;;;;;;;66.87;33.20;;;;;;;2.24;100.00;98127.61;5031053;56;1138806;-70
2023/03/10 09:04:50;;;;;;;71.27;39.77;;;;;;;2.29;100.00;98118.13;5129270;55;1138780;-73
2023/03/10 09:09:56;;;;;;;66.92;33.42;;;;;;;2.37;100.00;98114.39;5076275;55;1138888;-67
2023/03/10 09:15:02;;;;;;;68.53;35.23;;;;;;;2.46;100.00;98108.40;5044616;56;1141024;-72
2023/03/10 09:20:08;;;;;;;70.80;37.33;;;;;;;2.61;100.00;98101.08;5128885;56;1141328;-65
2023/03/10 09:25:14;;;;;;;66.57;34.57;;;;;;;2.72;100.00;98104.47;5171183;55;1141157;-65
2023/03/10 09:30:20;;;;;;;67.78;34.75;;;;;;;2.88;100.00;98094.03;5191323;56;1140891;-70
2023/03/10 09:35:27;;;;;;;66.70;36.30;;;;;;;3.07;100.00;98092.80;5188913;56;1140871;-71
2023/03/10 09:40:34;;;;;;;70.45;39.50;;;;;;;3.07;100.00;98092.80;5171398;55;1141154;-69
2023/03/10 09:45:59;;;;;;;70.03;37.28;;;;;;;3.26;100.00;98097.27;5191636;55;1140946;-70
2023/03/10 09:51:18;;;;;;;86.70;49.40;;;;;;;3.38;100.00;98097.03;5171619;56;1140861;-70
2023/03/10 09:56:34;;;;;;;75.97;44.43;;;;;;;3.52;100.00;98103.19;5170903;55;1141040;-75
2023/03/10 10:16:50;;;;;;;73.28;36.48;;;;;;;3.80;100.00;98084.62;5138965;56;46796;-74
2023/03/10 10:22:09;;;;;;;71.25;36.63;;;;;;;4.15;100.00;98066.23;4945802;57;1136841;-74
2023/03/10 10:27:16;;;;;;;84.27;39.00;;;;;;;4.32;100.00;98064.70;4951108;57;1141039;-80
2023/03/10 10:32:22;;;;;;;114.07;42.83;;;;;;;4.47;100.00;98059.38;5046785;57;1140961;-73
2023/03/10 10:37:34;;;;;;;151.10;53.23;;;;;;;4.64;100.00;98055.20;4979876;57;1143404;-77
2023/03/10 10:42:45;;;;;;;80.30;34.27;;;;;;;4.84;100.00;98058.13;4883443;58;1143052;-79
2023/03/10 10:47:54;;;;;;;83.57;28.80;;;;;;;5.05;100.00;98051.33;5022408;57;1141206;-78
2023/03/10 10:53:23;;;;;;;134.87;28.77;;;;;;;5.40;100.00;98057.17;4963463;58;1141060;-76
2023/03/10 10:58:33;;;;;;;57.70;13.48;;;;;;;5.79;100.00;98042.86;4861280;57;1143026;-77
2023/03/10 11:03:48;;;;;;;42.47;9.13;;;;;;;6.20;100.00;98048.00;4879012;58;1140885;-76
2023/03/10 11:09:07;;;;;;;29.13;8.93;;;;;;;6.47;100.00;98029.16;4934458;57;1139080;-74
2023/03/10 11:14:43;;;;;;;24.50;8.03;;;;;;;6.69;100.00;98039.98;4970618;56;1139273;-78
2023/03/10 11:19:59;;;;;;;13.13;5.47;;;;;;;6.88;100.00;98034.97;4922521;57;1139149;-72
2023/03/10 11:25:30;;;;;;;27.93;8.10;;;;;;;7.03;100.00;98028.64;4958528;57;1138992;-75
2023/03/10 11:30:43;;;;;;;22.15;6.33;;;;;;;7.13;100.00;98028.05;5004906;57;1138811;-77
2023/03/10 11:35:59;;;;;;;10.57;4.57;;;;;;;7.28;100.00;98022.52;4958787;57;1138964;-79
2023/03/10 11:41:15;;;;;;;22.47;8.63;;;;;;;7.45;100.00;98026.52;4836181;59;1138864;-71
2023/03/10 11:46:29;;;;;;;27.97;9.07;;;;;;;7.57;100.00;98026.05;4880085;57;1138887;-72
2023/03/10 11:51:39;;;;;;;;;;;;;;;7.67;100.00;98029.34;4970667;57;1138858;-79
2023/03/10 11:56:48;;;;;;;12.35;3.87;;;;;;;7.83;100.00;98025.92;4970446;57;974327;-77
2023/03/10 12:02:04;;;;;;;15.63;6.03;;;;;;;7.97;100.00;98025.27;4951920;57;1136828;-80
2023/03/10 12:07:31;;;;;;;13.37;5.20;;;;;;;8.11;100.00;98017.22;4980960;56;1138906;-77
2023/03/10 12:12:40;;;;;;;20.37;7.65;;;;;;;8.25;100.00;98023.14;5069023;56;1138928;-74
2023/03/10 12:17:48;;;;;;;21.90;5.47;;;;;;;8.37;100.00;98022.36;5036638;56;1138915;-76
2023/03/10 12:22:58;;;;;;;8.50;3.23;;;;;;;8.46;100.00;98018.72;5045635;56;1138939;-78
2023/03/10 12:28:28;;;;;;;7.70;3.92;;;;;;;8.56;100.00;98021.98;5009619;56;1136854;-78
2023/03/10 12:33:41;;;;;;;7.03;3.30;;;;;;;8.65;100.00;98008.32;5003198;56;1136947;-80
2023/03/10 12:38:59;;;;;;;4.67;2.90;;;;;;;8.71;100.00;98013.72;5035108;56;1136860;-79
2023/03/10 12:44:24;;;;;;;6.30;2.80;;;;;;;8.77;100.00;98012.23;4961632;57;1137162;-80
2023/03/10 12:49:55;;;;;;;4.80;2.37;;;;;;;8.83;100.00;98022.12;5058426;56;1136848;-74
2023/03/10 12:55:20;;;;;;;6.90;2.87;;;;;;;8.90;100.00;98022.25;5041787;56;1137267;-76
2023/03/10 13:00:45;;;;;;;4.37;2.67;;;;;;;8.95;100.00;98014.16;5052198;56;1137102;-79
2023/03/10 13:06:07;;;;;;;6.03;2.97;;;;;;;9.01;100.00;98027.17;5010204;56;1136727;-79
2023/03/10 13:11:40;;;;;;;52.53;14.20;;;;;;;9.02;100.00;98033.57;5021421;55;1136705;-78
2023/03/10 13:17:03;;;;;;;12.88;4.53;;;;;;;9.04;100.00;98026.81;5052647;56;1146828;-78
2023/03/10 13:22:05;;;;;;;5.83;2.47;;;;;;;9.12;100.00;98033.39;4950335;57;1138838;-75
2023/03/10 13:27:16;;;;;;;6.50;3.13;;;;;;;9.22;100.00;98030.54;4872288;58;1136820;-74
2023/03/10 13:32:22;;;;;;;4.87;2.70;;;;;;;9.32;100.00;98025.91;4940637;58;1136843;-75
2023/03/10 13:37:28;;;;;;;5.70;2.67;;;;;;;9.40;100.00;98029.31;4902326;58;1136742;-76
2023/03/10 13:42:35;;;;;;;5.03;2.73;;;;;;;9.49;100.00;98022.16;4965924;56;1231420;-74
2023/03/10 13:47:43;;;;;;;11.33;5.20;;;;;;;9.56;100.00;98018.34;4965774;57;1136742;-74
2023/03/10 13:52:56;;;;;;;5.67;2.60;;;;;;;9.64;100.00;98023.06;4981190;57;1139346;-77
2023/03/10 13:58:05;;;;;;;8.73;2.97;;;;;;;9.71;100.00;98012.65;4998936;57;1137073;-78
2023/03/10 14:03:14;;;;;;;19.53;11.83;;;;;;;9.75;100.00;98016.09;4985262;57;1136918;-74
2023/03/10 14:08:31;;;;;;;12.23;6.83;;;;;;;9.81;100.00;98012.73;4957382;56;1140978;-75
2023/03/10 14:13:44;;;;;;;10.38;5.17;;;;;;;9.89;100.00;98014.52;4979606;56;1138881;-73
2023/03/10 14:18:50;;;;;;;;;;;;;;;9.96;100.00;98011.97;5061757;56;1139096;-76
2023/03/10 14:24:02;;;;;;;10.27;5.30;;;;;;;10.02;100.00;98008.64;5110630;56;974061;-74
2023/03/10 14:29:17;;;;;;;27.63;11.50;;;;;;;10.02;100.00;98003.36;5013228;56;1138894;-79
2023/03/10 14:34:23;;;;;;;16.00;8.60;;;;;;;10.02;100.00;98006.82;5019576;55;1143378;-74
2023/03/10 14:39:29;;;;;;;25.33;8.20;;;;;;;9.98;100.00;98002.88;5098728;55;1140986;-77
2023/03/10 14:44:35;;;;;;;19.50;8.53;;;;;;;9.91;100.00;98012.52;5094740;55;1140624;-75
2023/03/10 14:49:41;;;;;;;25.03;11.83;;;;;;;9.87;100.00;98002.80;5023974;56;1138877;-77
2023/03/10 14:54:47;;;;;;;48.57;21.43;;;;;;;9.83;100.00;97999.36;5033352;56;1140958;-74
2023/03/10 14:59:53;;;;;;;30.93;17.07;;;;;;;9.81;100.00;98003.99;5013762;56;1141049;-72
2023/03/10 15:04:58;;;;;;;29.20;13.90;;;;;;;9.77;100.00;97998.77;4903842;56;1141122;-75
2023/03/10 15:10:05;;;;;;;69.13;55.80;;;;;;;9.76;100.00;97997.94;5001865;57;1140877;-79
2023/03/10 15:15:16;;;;;;;79.42;45.38;;;;;;;9.78;100.00;98013.58;4997777;57;1140912;-75
2023/03/10 15:20:24;;;;;;;85.63;49.23;;;;;;;9.42;100.00;98007.54;5042218;56;1140787;-73
2023/03/10 15:25:30;;;;;;;109.57;58.83;;;;;;;8.94;100.00;98015.16;4978504;57;1140965;-76
2023/03/10 15:30:37;;;;;;;105.87;55.90;;;;;;;8.54;100.00;98025.31;5019457;56;1143156;-76
2023/03/10 15:35:45;;;;;;;83.42;44.27;;;;;;;8.21;100.00;98052.61;4998557;56;1143048;-74
2023/03/10 15:40:51;;;;;;;91.97;47.60;;;;;;;8.00;100.00;98047.33;4986615;56;1140913;-76
2023/03/10 15:45:57;;;;;;;99.20;50.67;;;;;;;7.79;100.00;98035.14;5039482;56;1141069;-77
2023/03/10 15:51:06;;;;;;;88.33;42.97;;;;;;;7.79;100.00;98035.14;5032735;56;1141075;-77
2023/03/10 15:56:14;;;;;;;105.80;55.60;;;;;;;7.65;100.00;98059.42;5032076;56;1140967;-76
2023/03/10 16:01:20;;;;;;;104.07;56.07;;;;;;;7.53;100.00;98061.53;5018044;56;1143143;-76
2023/03/10 16:06:28;;;;;;;138.87;72.90;;;;;;;7.47;100.00;98058.25;4950682;57;1143088;-67
2023/03/10 16:11:34;;;;;;;128.97;67.05;;;;;;;7.46;100.00;98049.20;4970599;57;1143012;-75
2023/03/10 16:16:40;;;;;;;96.78;55.73;;;;;;;7.46;100.00;98059.72;5085871;56;1142975;-75
2023/03/10 16:21:46;;;;;;;81.60;41.70;;;;;;;7.46;100.00;98045.25;5094940;56;1141105;-74
2023/03/10 16:26:52;;;;;;;63.70;34.40;;;;;;;7.41;100.00;98058.37;4909427;58;1141000;-78
2023/03/10 16:31:58;;;;;;;57.80;33.17;;;;;;;7.39;100.00;98056.40;4963296;57;1140926;-78
2023/03/10 16:37:06;;;;;;;64.67;36.53;;;;;;;7.35;100.00;98049.80;4999114;57;1140946;-77
2023/03/10 16:42:12;;;;;;;74.97;39.55;;;;;;;7.26;100.00;98048.63;4979338;57;1140979;-77
2023/03/10 16:47:18;;;;;;;57.27;32.57;;;;;;;7.19;100.00;98054.17;5012269;56;1141014;-77
2023/03/10 16:52:24;;;;;;;47.97;27.83;;;;;;;7.17;100.00;98048.27;5031728;57;1140791;-74
2023/03/10 16:57:29;;;;;;;44.97;26.80;;;;;;;7.14;100.00;98062.55;4936402;57;1141013;-73
2023/03/10 17:02:36;;;;;;;89.67;45.30;;;;;;;7.22;100.00;98070.95;4932304;57;1140851;-76
2023/03/10 17:07:42;;;;;;;127.32;67.50;;;;;;;7.21;100.00;98087.20;4872959;58;1140898;-74
2023/03/10 17:12:47;;;;;;;124.45;57.50;;;;;;;7.22;100.00;98078.34;4855370;58;1143131;-74
2023/03/10 17:17:53;;;;;;;210.57;79.80;;;;;;;7.22;100.00;98077.52;4879181;57;1143195;-70
2023/03/10 17:22:59;;;;;;;83.70;45.80;;;;;;;7.14;100.00;98063.86;5004528;57;1143167;-69
2023/03/10 17:28:07;;;;;;;116.83;71.20;;;;;;;7.01;100.00;98060.36;4962564;57;1141078;-73
2023/03/10 17:33:13;;;;;;;92.97;51.30;;;;;;;6.99;100.00;98059.69;4950796;57;1143159;-78
2023/03/10 17:38:19;;;;;;;64.17;38.23;;;;;;;6.98;100.00;98047.52;4951461;57;1140843;-77
2023/03/10 17:43:30;;;;;;;44.60;26.10;;;;;;;6.92;100.00;98044.69;4970524;56;1141293;-75
2023/03/10 17:48:34;;;;;;;42.97;24.37;;;;;;;6.83;100.00;98033.81;5022436;56;1141014;-77
2023/03/10 17:53:40;;;;;;;35.10;21.80;;;;;;;6.79;100.00;98031.16;4951884;57;1141013;-74
2023/03/10 17:58:46;;;;;;;41.13;24.50;;;;;;;6.73;100.00;98022.08;4969967;57;1140987;-76
2023/03/10 18:03:54;;;;;;;40.20;24.50;;;;;;;6.70;100.00;98018.48;4951492;57;1141268;-76
2023/03/10 18:09:04;;;;;;;47.50;29.77;;;;;;;6.71;100.00;98005.69;4951607;57;1141106;-76
2023/03/10 18:14:10;;;;;;;49.17;28.47;;;;;;;6.75;100.00;98010.11;5042894;56;1141128;-74
2023/03/10 18:19:20;;;;;;;50.38;29.87;;;;;;;6.69;100.00;98003.70;5022977;56;1140989;-73
2023/03/10 18:24:25;;;;;;;80.23;41.90;;;;;;;6.69;100.00;97999.76;4980010;56;1141060;-74
2023/03/10 18:29:31;;;;;;;61.73;32.67;;;;;;;6.66;100.00;97995.64;5070427;56;1140945;-76
2023/03/10 18:34:37;;;;;;;68.93;36.00;;;;;;;6.65;100.00;98008.43;4974189;56;1140989;-74
2023/03/10 18:39:43;;;;;;;64.10;32.78;;;;;;;6.60;100.00;98008.55;4980025;57;1140987;-75
2023/03/10 18:44:49;;;;;;;85.80;44.37;;;;;;;6.61;100.00;98000.52;4995027;57;1141096;-78
2023/03/10 18:49:57;;;;;;;160.53;95.83;;;;;;;6.66;100.00;97991.69;4970075;57;1140927;-74
2023/03/10 18:55:04;;;;;;;275.10;121.62;;;;;;;6.65;100.00;97974.29;4973750;56;1143091;-77
2023/03/10 19:00:13;;;;;;;199.23;88.20;;;;;;;6.65;100.00;97972.16;5075198;56;1145368;-78
2023/03/10 19:05:21;;;;;;;175.23;83.93;;;;;;;6.61;100.00;97965.55;4973182;57;1143144;-77
2023/03/10 19:10:27;;;;;;;140.37;74.00;;;;;;;6.65;100.00;97966.90;4973371;57;1143365;-78
2023/03/10 19:15:33;;;;;;;121.17;62.20;;;;;;;6.69;100.00;97975.63;4955907;57;1143167;-75
2023/03/10 19:20:39;;;;;;;122.43;65.23;;;;;;;6.69;100.00;97965.61;4978373;57;1143245;-75
2023/03/10 19:25:45;;;;;;;93.75;50.98;;;;;;;6.64;100.00;97960.82;4950597;57;1143060;-75
2023/03/10 19:30:52;;;;;;;118.82;53.06;;;;;;;6.62;100.00;97946.20;4940080;56;1141084;-76
2023/03/10 19:36:06;;;;;;;117.17;50.37;;;;;;;6.59;100.00;97942.08;4921272;56;1143108;-76
2023/03/10 19:41:16;;;;;;;93.52;41.58;;;;;;;6.58;100.00;97924.67;4982219;57;1142920;-76
2023/03/10 19:46:23;;;;;;;82.87;36.93;;;;;;;6.51;100.00;97923.67;4981404;57;1141071;-71
2023/03/10 19:51:30;;;;;;;63.70;33.80;;;;;;;6.48;100.00;97914.78;4998458;57;1141037;-80
2023/03/10 19:56:36;;;;;;;42.17;23.43;;;;;;;6.41;100.00;97904.59;5066339;56;1141116;-78
2023/03/10 20:01:42;;;;;;;107.00;50.57;;;;;;;6.35;100.00;97902.58;5066493;56;1141099;-75
2023/03/10 20:06:48;;;;;;;374.85;114.57;;;;;;;6.34;100.00;97907.50;5003198;57;1142923;-74
2023/03/10 20:11:55;;;;;;;332.17;101.87;;;;;;;6.31;100.00;97922.23;4957305;57;1145174;-75
2023/03/10 20:17:01;;;;;;;55.75;27.93;;;;;;;6.29;100.00;97928.13;4976549;57;1145176;-77
2023/03/10 20:22:07;;;;;;;156.40;61.37;;;;;;;6.29;100.00;97913.20;4986814;57;1140890;-81
2023/03/10 20:27:13;;;;;;;58.83;29.00;;;;;;;6.26;100.00;97908.78;4969485;56;1143006;-78
2023/03/10 20:32:19;;;;;;;70.07;45.27;;;;;;;6.25;100.00;97912.37;4968679;57;1140938;-73
2023/03/10 20:37:25;;;;;;;39.70;21.93;;;;;;;6.22;100.00;97906.95;4986849;56;1140826;-75
2023/03/10 20:42:32;;;;;;;35.73;20.97;;;;;;;6.18;100.00;97926.59;4904325;58;1140909;-76
2023/03/10 20:47:38;;;;;;;192.93;121.67;;;;;;;6.15;100.00;97935.27;4826584;59;1140885;-78
2023/03/10 20:52:45;;;;;;;36.40;20.83;;;;;;;6.04;100.00;97925.85;4983392;56;1145331;-78
2023/03/10 20:57:53;;;;;;;99.23;59.23;;;;;;;6.03;100.00;97912.40;5066436;56;1153980;-74
2023/03/10 21:02:59;;;;;;;95.17;44.93;;;;;;;6.18;100.00;97894.28;5106108;56;1141339;-78
2023/03/10 21:08:05;;;;;;;85.63;47.13;;;;;;;6.27;100.00;97882.84;5067396;55;1141160;-76
2023/03/10 21:13:11;;;;;;;206.97;88.27;;;;;;;6.35;100.00;97898.64;5086868;56;1140869;-73
2023/03/10 21:18:17;;;;;;;92.37;49.87;;;;;;;6.41;100.00;97882.77;5028858;56;1142871;-76
2023/03/10 21:23:23;;;;;;;88.33;48.50;;;;;;;6.38;100.00;97872.09;4972300;56;1138903;-74
2023/03/10 21:28:28;;;;;;;82.03;45.63;;;;;;;6.33;100.00;97857.29;5074314;56;1140960;-78
2023/03/10 21:33:34;;;;;;;83.30;43.13;;;;;;;6.36;100.00;97870.11;5066531;56;1140958;-75
2023/03/10 21:38:41;;;;;;;63.70;36.27;;;;;;;6.44;100.00;97873.24;4988023;56;1141112;-78
2023/03/10 21:43:47;;;;;;;78.10;43.30;;;;;;;6.56;100.00;97872.00;4938741;57;1140900;-78
2023/03/10 21:48:53;;;;;;;109.27;56.50;;;;;;;6.61;100.00;97871.84;4901045;56;1141218;-77
2023/03/10 21:53:59;;;;;;;106.67;51.48;;;;;;;6.62;100.00;97874.80;4900033;58;1143130;-77
2023/03/10 21:59:06;;;;;;;107.15;47.75;;;;;;;6.58;100.00;97870.84;4994897;56;1143061;-75
2023/03/10 22:04:14;;;;;;;81.83;41.33;;;;;;;6.50;100.00;97860.81;4904033;56;1143000;-77
2023/03/10 22:09:20;;;;;;;85.97;41.73;;;;;;;6.42;100.00;97856.82;4905743;57;1140829;-78
2023/03/10 22:14:26;;;;;;;193.37;114.80;;;;;;;6.31;100.00;97859.24;4926434;56;1140998;-75
2023/03/10 22:19:32;;;;;;;127.50;62.50;;;;;;;6.13;100.00;97869.81;4902894;57;1145053;-74
2023/03/10 22:24:39;;;;;;;83.82;42.10;;;;;;;6.06;100.00;97861.42;4905851;57;1192091;-76
2023/03/10 22:29:46;;;;;;;98.63;44.03;;;;;;;6.05;100.00;97858.46;5003661;56;1141156;-76
2023/03/10 22:34:52;;;;;;;87.67;44.60;;;;;;;6.04;100.00;97856.33;4841315;58;1140965;-74
2023/03/10 22:39:58;;;;;;;108.47;50.35;;;;;;;6.04;100.00;97862.06;4959130;56;1140837;-76
2023/03/10 22:45:10;;;;;;;109.78;49.42;;;;;;;5.92;100.00;97862.82;5125855;55;1140915;-77
2023/03/10 22:50:20;;;;;;;89.03;43.60;;;;;;;5.86;100.00;97855.52;5103336;56;1143020;-79
2023/03/10 22:55:33;;;;;;;74.20;37.73;;;;;;;5.80;100.00;97854.36;5106171;56;1141024;-77
2023/03/10 23:00:35;;;;;;;65.93;34.23;;;;;;;5.78;100.00;97849.75;5125625;56;1140957;-76
2023/03/10 23:05:41;;;;;;;63.80;31.50;;;;;;;5.77;100.00;97855.97;5105757;56;1141053;-75
2023/03/10 23:10:47;;;;;;;54.57;29.37;;;;;;;5.59;100.00;97842.07;5106263;55;1159285;-75
2023/03/10 23:15:54;;;;;;;51.98;26.48;;;;;;;5.40;100.00;97847.00;5113708;56;1187272;-76
2023/03/10 23:21:00;;;;;;;53.30;27.77;;;;;;;5.25;100.00;97844.10;5155088;55;1140859;-77